Time;durP1;ratioP1;P1;durP2;ratioP2;P2;SDS_P1;SDS_P2;PMS_P1;PMS_P2;Temp;Humidity;BMP_temperature;BMP_pressure;BME280_temperature;BME280_humidity;BME280_pressure;Samples;Min_cycle;Max_cycle;Signal;HPM_P1;HPM_P2
2023/08/06 00:00:42;;;;;;;3.83;1.20;;;;;;;;;;5003939;28;21283;-68
2023/08/06 00:03:07;;;;;;;3.00;1.10;;;;;;;;;;5010682;28;20022;-67
2023/08/06 00:05:32;;;;;;;3.07;1.00;;;;;;;;;;5011608;28;20722;-69
2023/08/06 00:08:00;;;;;;;3.70;1.07;;;;;;;;;;5014140;28;20120;-70
2023/08/06 00:10:25;;;;;;;2.80;0.90;;;;;;;;;;5014670;28;20294;-69
2023/08/06 00:12:55;;;;;;;3.33;1.00;;;;;;;;;;5020136;28;20029;-70
2023/08/06 00:15:21;;;;;;;2.97;1.05;;;;;;;;;;5011077;28;20253;-70
2023/08/06 00:17:49;;;;;;;4.10;0.95;;;;;;;;;;5012637;28;20020;-69
2023/08/06 00:20:14;;;;;;;4.90;1.20;;;;;;;;;;5018260;28;20075;-68
2023/08/06 00:22:39;;;;;;;3.47;1.10;;;;;;;;;;5010160;28;20033;-68
2023/08/06 00:25:08;;;;;;;2.90;0.90;;;;;;;;;;5016972;28;20029;-69
2023/08/06 00:27:33;;;;;;;5.45;1.10;;;;;;;;;;5014330;28;20052;-68
2023/08/06 00:29:58;;;;;;;3.97;1.10;;;;;;;;;;5017119;28;20029;-70
2023/08/06 00:32:24;;;;;;;2.30;0.80;;;;;;;;;;5016495;28;20573;-68
2023/08/06 00:34:49;;;;;;;2.97;0.80;;;;;;;;;;5009993;28;20519;-72
2023/08/06 00:37:17;;;;;;;2.47;0.80;;;;;;;;;;5027590;28;20490;-68
2023/08/06 00:39:43;;;;;;;4.60;0.95;;;;;;;;;;5011669;28;20271;-68
2023/08/06 00:42:09;;;;;;;3.25;0.90;;;;;;;;;;5014155;28;20055;-68
2023/08/06 00:44:34;;;;;;;2.42;0.90;;;;;;;;;;5016117;28;20502;-70
2023/08/06 00:46:59;;;;;;;3.60;0.90;;;;;;;;;;5015490;28;20018;-69
2023/08/06 00:49:24;;;;;;;3.30;1.00;;;;;;;;;;5013136;28;20021;-69
2023/08/06 00:51:50;;;;;;;3.97;1.13;;;;;;;;;;5015678;28;20021;-66
2023/08/06 00:54:15;;;;;;;2.75;0.93;;;;;;;;;;5015573;28;20759;-68
2023/08/06 00:56:44;;;;;;;5.32;1.00;;;;;;;;;;5015004;28;20065;-69
2023/08/06 00:59:10;;;;;;;3.15;0.93;;;;;;;;;;5014808;28;20132;-70
2023/08/06 01:01:35;;;;;;;2.65;0.90;;;;;;;;;;5016465;28;20045;-68
2023/08/06 01:04:01;;;;;;;3.57;0.90;;;;;;;;;;5016671;28;20113;-67
2023/08/06 01:06:47;;;;;;;2.50;0.80;;;;;;;;;;5016950;28;20263;-68
2023/08/06 01:09:30;;;;;;;3.08;1.05;;;;;;;;;;5014645;28;20716;-66
2023/08/06 01:12:18;;;;;;;3.40;0.80;;;;;;;;;;5032301;28;20088;-69
2023/08/06 01:15:13;;;;;;;2.55;0.80;;;;;;;;;;5027010;28;20057;-68
2023/08/06 01:17:41;;;;;;;2.90;1.00;;;;;;;;;;5009935;28;20044;-67
2023/08/06 01:20:07;;;;;;;2.88;0.90;;;;;;;;;;5020968;28;20049;-69
2023/08/06 01:22:32;;;;;;;2.95;0.95;;;;;;;;;;5014460;28;20043;-67
2023/08/06 01:24:59;;;;;;;2.47;1.00;;;;;;;;;;5017748;28;20025;-68
2023/08/06 01:27:43;;;;;;;4.40;1.10;;;;;;;;;;5016774;28;20252;-68
2023/08/06 01:30:13;;;;;;;3.42;1.10;;;;;;;;;;5015665;28;21152;-67
2023/08/06 01:32:42;;;;;;;2.85;0.90;;;;;;;;;;5021316;28;20009;-69
2023/08/06 01:35:08;;;;;;;3.58;1.02;;;;;;;;;;5012781;28;20724;-67
2023/08/06 01:37:36;;;;;;;2.88;0.90;;;;;;;;;;5021064;28;20018;-68
2023/08/06 01:40:07;;;;;;;2.85;1.00;;;;;;;;;;5014046;28;20037;-69
2023/08/06 01:42:32;;;;;;;2.20;0.85;;;;;;;;;;5011800;28;20801;-69
2023/08/06 01:44:57;;;;;;;3.90;1.03;;;;;;;;;;5011050;28;20037;-68
2023/08/06 01:47:22;;;;;;;2.77;0.90;;;;;;;;;;5016725;28;20720;-69
2023/08/06 01:49:48;;;;;;;3.10;1.00;;;;;;;;;;5014258;28;20268;-67
2023/08/06 01:52:13;;;;;;;3.03;1.00;;;;;;;;;;5014339;28;20056;-68
2023/08/06 01:54:41;;;;;;;2.90;1.10;;;;;;;;;;5014788;28;20275;-68
2023/08/06 01:57:08;;;;;;;3.40;1.00;;;;;;;;;;5019174;28;20032;-69
2023/08/06 01:59:34;;;;;;;4.10;1.10;;;;;;;;;;5012797;28;20803;-70
2023/08/06 02:01:59;;;;;;;4.03;1.10;;;;;;;;;;5014904;28;20033;-70
2023/08/06 02:04:24;;;;;;;2.70;0.90;;;;;;;;;;5016197;28;21042;-68
2023/08/06 02:06:49;;;;;;;4.57;2.27;;;;;;;;;;5010834;28;20703;-69
2023/08/06 02:09:15;;;;;;;2.50;0.90;;;;;;;;;;5026384;28;20256;-70
2023/08/06 02:11:40;;;;;;;2.50;0.83;;;;;;;;;;5010811;28;20070;-69
2023/08/06 02:14:07;;;;;;;2.70;0.80;;;;;;;;;;5022222;28;20267;-69
2023/08/06 02:16:32;;;;;;;3.08;0.80;;;;;;;;;;5011690;28;20339;-69
2023/08/06 02:18:58;;;;;;;2.80;0.90;;;;;;;;;;5013024;28;20035;-70
2023/08/06 02:21:23;;;;;;;2.33;0.80;;;;;;;;;;5014518;28;20053;-67
2023/08/06 02:23:48;;;;;;;3.47;1.07;;;;;;;;;;5028579;28;20037;-69
2023/08/06 02:26:13;;;;;;;2.43;0.90;;;;;;;;;;5014262;28;20626;-69
2023/08/06 02:28:39;;;;;;;2.73;0.90;;;;;;;;;;5013744;28;20371;-70
2023/08/06 02:31:06;;;;;;;2.53;0.70;;;;;;;;;;5029488;28;21028;-68
2023/08/06 02:33:31;;;;;;;3.58;0.85;;;;;;;;;;5017165;28;20260;-68
2023/08/06 02:36:01;;;;;;;2.73;0.90;;;;;;;;;;5015151;28;20028;-68
2023/08/06 02:38:26;;;;;;;2.75;0.80;;;;;;;;;;5019017;28;20082;-68
2023/08/06 02:40:51;;;;;;;3.37;0.90;;;;;;;;;;5013193;28;20025;-69
2023/08/06 02:43:19;;;;;;;2.67;0.87;;;;;;;;;;5015374;28;20271;-70
2023/08/06 02:45:44;;;;;;;3.60;0.70;;;;;;;;;;5044435;28;20287;-69
2023/08/06 02:48:10;;;;;;;2.43;0.80;;;;;;;;;;5014810;28;20388;-66
2023/08/06 02:50:39;;;;;;;3.05;0.90;;;;;;;;;;5007973;28;20282;-69
2023/08/06 02:53:04;;;;;;;3.47;0.90;;;;;;;;;;5006585;28;20124;-69
2023/08/06 02:55:34;;;;;;;2.55;0.80;;;;;;;;;;5010656;28;20115;-69
2023/08/06 02:58:04;;;;;;;2.17;0.80;;;;;;;;;;5011508;28;20025;-68
2023/08/06 03:00:30;;;;;;;2.92;1.00;;;;;;;;;;5013642;28;20049;-68
2023/08/06 03:02:55;;;;;;;1.95;0.68;;;;;;;;;;5017403;28;20921;-70
2023/08/06 03:05:22;;;;;;;2.97;1.07;;;;;;;;;;5012972;28;20026;-69
2023/08/06 03:07:48;;;;;;;2.28;0.73;;;;;;;;;;5010559;28;20448;-70
2023/08/06 03:10:13;;;;;;;3.00;0.80;;;;;;;;;;5013968;28;20032;-68
2023/08/06 03:12:38;;;;;;;2.80;0.85;;;;;;;;;;5011705;28;20366;-68
2023/08/06 03:15:04;;;;;;;3.17;0.80;;;;;;;;;;5010862;28;20025;-69
2023/08/06 03:17:29;;;;;;;2.28;0.90;;;;;;;;;;5012443;28;20260;-69
2023/08/06 03:19:54;;;;;;;3.27;0.73;;;;;;;;;;5013748;28;20049;-69
2023/08/06 03:22:19;;;;;;;2.37;0.70;;;;;;;;;;5010562;28;20013;-69
2023/08/06 03:24:45;;;;;;;2.87;0.70;;;;;;;;;;5014719;28;20849;-69
2023/08/06 03:27:10;;;;;;;3.47;0.80;;;;;;;;;;5010236;28;20030;-70
2023/08/06 03:29:35;;;;;;;2.37;0.77;;;;;;;;;;5012878;28;20030;-70
2023/08/06 03:32:00;;;;;;;2.93;0.80;;;;;;;;;;5017674;28;20112;-69
2023/08/06 03:34:28;;;;;;;2.60;0.80;;;;;;;;;;5011537;28;20057;-68
2023/08/06 03:36:55;;;;;;;3.30;0.90;;;;;;;;;;5016117;28;20076;-69
2023/08/06 03:39:21;;;;;;;1.95;0.70;;;;;;;;;;5028092;28;20021;-69
2023/08/06 03:41:48;;;;;;;4.70;0.70;;;;;;;;;;5017143;28;20078;-69
2023/08/06 03:44:16;;;;;;;2.83;0.80;;;;;;;;;;5014274;28;20036;-70
2023/08/06 03:46:41;;;;;;;2.17;0.88;;;;;;;;;;5019513;28;20033;-70
2023/08/06 03:49:06;;;;;;;2.13;0.70;;;;;;;;;;5016156;28;20077;-68
2023/08/06 03:51:31;;;;;;;2.67;0.60;;;;;;;;;;5019217;28;20332;-68
2023/08/06 03:53:57;;;;;;;2.10;0.60;;;;;;;;;;5012039;28;20279;-69
2023/08/06 03:56:22;;;;;;;2.53;0.80;;;;;;;;;;5015506;28;20456;-69
2023/08/06 03:58:50;;;;;;;2.80;0.70;;;;;;;;;;5016352;28;20355;-68
2023/08/06 04:01:15;;;;;;;2.38;0.70;;;;;;;;;;5014986;28;20488;-69
2023/08/06 04:03:40;;;;;;;2.30;0.70;;;;;;;;;;5015007;28;20029;-69
2023/08/06 04:06:06;;;;;;;2.27;0.60;;;;;;;;;;5033586;28;20034;-69
2023/08/06 04:08:31;;;;;;;2.45;0.73;;;;;;;;;;5018273;28;20452;-69
2023/08/06 04:10:57;;;;;;;2.20;0.70;;;;;;;;;;5015261;28;20045;-69
2023/08/06 04:13:22;;;;;;;2.57;0.90;;;;;;;;;;5014318;28;20014;-71
2023/08/06 04:15:50;;;;;;;2.33;0.88;;;;;;;;;;5017880;28;21592;-69
2023/08/06 04:18:15;;;;;;;2.35;0.70;;;;;;;;;;5019166;28;20139;-69
2023/08/06 04:20:45;;;;;;;1.98;0.70;;;;;;;;;;5012848;28;20057;-67
2023/08/06 04:23:10;;;;;;;2.70;0.73;;;;;;;;;;5027281;28;20847;-69
2023/08/06 04:25:35;;;;;;;2.78;0.80;;;;;;;;;;5014926;28;20021;-68
2023/08/06 04:28:00;;;;;;;2.07;0.70;;;;;;;;;;5015902;28;20571;-67
2023/08/06 04:30:26;;;;;;;2.50;0.70;;;;;;;;;;5018207;28;20290;-68
2023/08/06 04:32:51;;;;;;;1.77;0.70;;;;;;;;;;5016958;28;20272;-68
2023/08/06 04:35:16;;;;;;;3.17;0.80;;;;;;;;;;5013839;28;20706;-68
2023/08/06 04:37:41;;;;;;;2.63;0.70;;;;;;;;;;5007433;28;20351;-70
2023/08/06 04:40:07;;;;;;;3.08;0.80;;;;;;;;;;5017743;28;20389;-68
2023/08/06 04:42:32;;;;;;;2.60;0.70;;;;;;;;;;5016841;28;20027;-67
2023/08/06 04:45:00;;;;;;;2.30;0.80;;;;;;;;;;5013715;28;20052;-69
2023/08/06 04:47:25;;;;;;;3.47;0.80;;;;;;;;;;5015230;28;20272;-68
2023/08/06 04:49:51;;;;;;;2.35;0.60;;;;;;;;;;5015078;28;20464;-70
2023/08/06 04:52:18;;;;;;;2.08;0.60;;;;;;;;;;5016032;28;20030;-68
2023/08/06 04:54:44;;;;;;;1.98;0.68;;;;;;;;;;5041336;28;20056;-69
2023/08/06 04:57:11;;;;;;;2.73;0.70;;;;;;;;;;5014012;28;20057;-69
2023/08/06 04:59:36;;;;;;;2.63;0.73;;;;;;;;;;5027270;28;21153;-69
2023/08/06 05:02:01;;;;;;;2.72;0.80;;;;;;;;;;5017450;28;20025;-68
2023/08/06 05:04:27;;;;;;;2.25;0.75;;;;;;;;;;5009938;28;20033;-69
2023/08/06 05:06:52;;;;;;;2.53;0.70;;;;;;;;;;5010760;28;20103;-68
2023/08/06 05:09:18;;;;;;;1.90;0.75;;;;;;;;;;5008330;28;20021;-69
2023/08/06 05:11:43;;;;;;;2.10;0.67;;;;;;;;;;5011115;28;20026;-70
2023/08/06 05:14:08;;;;;;;2.37;0.70;;;;;;;;;;5013670;28;20334;-67
2023/08/06 05:16:36;;;;;;;1.83;0.60;;;;;;;;;;5010611;28;20284;-69
2023/08/06 05:19:01;;;;;;;1.88;0.70;;;;;;;;;;5010401;28;20309;-68
2023/08/06 05:21:31;;;;;;;1.63;0.60;;;;;;;;;;5019388;28;20021;-68
2023/08/06 05:23:56;;;;;;;2.03;0.70;;;;;;;;;;5008713;28;20334;-69
2023/08/06 05:26:22;;;;;;;2.73;0.73;;;;;;;;;;5015924;28;20037;-69
2023/08/06 05:28:49;;;;;;;2.70;0.80;;;;;;;;;;5017113;28;20037;-68
2023/08/06 05:31:14;;;;;;;2.38;0.80;;;;;;;;;;5015083;28;20302;-68
2023/08/06 05:33:40;;;;;;;2.97;0.80;;;;;;;;;;5012531;28;20021;-68
2023/08/06 05:36:07;;;;;;;2.40;0.80;;;;;;;;;;5012137;28;20259;-69
2023/08/06 05:38:32;;;;;;;2.33;0.77;;;;;;;;;;5010120;28;20849;-69
2023/08/06 05:40:58;;;;;;;2.93;0.73;;;;;;;;;;5010562;28;20037;-68
2023/08/06 05:43:23;;;;;;;2.13;0.75;;;;;;;;;;5010655;28;20256;-68
2023/08/06 05:45:51;;;;;;;3.27;0.93;;;;;;;;;;5012936;28;20037;-67
2023/08/06 05:48:16;;;;;;;2.13;0.68;;;;;;;;;;5012516;28;20817;-68
2023/08/06 05:50:42;;;;;;;2.47;0.80;;;;;;;;;;5010395;28;20120;-67
2023/08/06 05:53:07;;;;;;;2.92;1.05;;;;;;;;;;5013313;28;20021;-68
2023/08/06 05:55:33;;;;;;;2.17;0.70;;;;;;;;;;5013491;28;20021;-68
2023/08/06 05:57:58;;;;;;;1.92;0.70;;;;;;;;;;5010412;28;20021;-69
2023/08/06 06:00:23;;;;;;;3.45;0.90;;;;;;;;;;5015891;28;20025;-67
2023/08/06 06:02:48;;;;;;;2.50;0.80;;;;;;;;;;5027634;28;20035;-69
2023/08/06 06:05:14;;;;;;;2.13;0.73;;;;;;;;;;5010414;28;20018;-70
2023/08/06 06:07:41;;;;;;;2.42;0.90;;;;;;;;;;5014647;28;20790;-68
2023/08/06 06:10:07;;;;;;;2.78;0.80;;;;;;;;;;5010346;28;20017;-70
2023/08/06 06:12:32;;;;;;;2.35;0.80;;;;;;;;;;5029781;28;20099;-69
2023/08/06 06:14:57;;;;;;;2.97;1.00;;;;;;;;;;5011765;28;20523;-69
2023/08/06 06:17:23;;;;;;;2.50;0.80;;;;;;;;;;5009820;28;20100;-68
2023/08/06 06:19:49;;;;;;;2.25;0.70;;;;;;;;;;5010232;28;20443;-68
2023/08/06 06:22:14;;;;;;;2.85;0.80;;;;;;;;;;5011168;28;20096;-68
2023/08/06 06:24:42;;;;;;;1.60;0.60;;;;;;;;;;5013466;28;20659;-74
2023/08/06 06:27:07;;;;;;;2.58;0.65;;;;;;;;;;5005613;28;21194;-67
2023/08/06 06:29:33;;;;;;;2.97;0.77;;;;;;;;;;5025316;28;20131;-69
2023/08/06 06:31:58;;;;;;;2.23;0.80;;;;;;;;;;5009925;28;20516;-68
2023/08/06 06:34:23;;;;;;;2.30;0.70;;;;;;;;;;5012770;28;20792;-69
2023/08/06 06:36:49;;;;;;;3.92;0.90;;;;;;;;;;5011533;28;20026;-69
2023/08/06 06:39:15;;;;;;;2.70;0.90;;;;;;;;;;5008993;28;20116;-69
2023/08/06 06:41:41;;;;;;;2.05;0.70;;;;;;;;;;5013664;28;20362;-70
2023/08/06 06:44:08;;;;;;;2.58;0.82;;;;;;;;;;5009056;28;20044;-65
2023/08/06 06:46:36;;;;;;;2.55;0.70;;;;;;;;;;5017037;28;20024;-68
2023/08/06 06:49:01;;;;;;;2.20;0.73;;;;;;;;;;5031737;28;20024;-68
2023/08/06 06:51:27;;;;;;;2.85;0.80;;;;;;;;;;5009250;28;20025;-69
2023/08/06 06:53:52;;;;;;;2.27;0.80;;;;;;;;;;5008752;28;20021;-67
2023/08/06 06:56:19;;;;;;;3.20;1.00;;;;;;;;;;5014445;28;21230;-68
2023/08/06 06:58:44;;;;;;;2.53;0.90;;;;;;;;;;5030726;28;20272;-67
2023/08/06 07:01:12;;;;;;;2.43;0.90;;;;;;;;;;5008901;28;20083;-69
2023/08/06 07:03:38;;;;;;;2.97;0.90;;;;;;;;;;5015957;28;20025;-68
2023/08/06 07:06:03;;;;;;;2.78;0.88;;;;;;;;;;5008836;28;20022;-67
2023/08/06 07:08:31;;;;;;;2.88;0.85;;;;;;;;;;5012577;28;20057;-68
2023/08/06 07:11:01;;;;;;;2.40;0.90;;;;;;;;;;5012338;28;20429;-69
2023/08/06 07:13:27;;;;;;;2.92;0.93;;;;;;;;;;5018127;28;20037;-69
2023/08/06 07:15:54;;;;;;;3.17;0.90;;;;;;;;;;5011586;28;20025;-67
2023/08/06 07:18:19;;;;;;;2.67;0.80;;;;;;;;;;5032957;28;20894;-69
2023/08/06 07:20:54;;;;;;;1.93;0.70;;;;;;;;;;5017515;28;20045;-67
2023/08/06 07:23:23;;;;;;;2.42;0.80;;;;;;;;;;5015824;28;21230;-68
2023/08/06 07:25:48;;;;;;;2.63;0.80;;;;;;;;;;5010928;28;20041;-68
2023/08/06 07:28:14;;;;;;;4.45;1.00;;;;;;;;;;5012543;28;21036;-69
2023/08/06 07:30:40;;;;;;;3.08;0.93;;;;;;;;;;5015225;28;20064;-68
2023/08/06 07:33:08;;;;;;;3.10;0.90;;;;;;;;;;5013420;28;20044;-68
2023/08/06 07:35:36;;;;;;;2.65;0.85;;;;;;;;;;5010446;28;20021;-70
2023/08/06 07:38:02;;;;;;;2.90;0.88;;;;;;;;;;5010452;28;20426;-69
2023/08/06 07:40:28;;;;;;;2.72;0.90;;;;;;;;;;5013545;28;20022;-70
2023/08/06 07:42:53;;;;;;;2.70;0.80;;;;;;;;;;5005953;28;20049;-67
2023/08/06 07:45:19;;;;;;;3.50;1.00;;;;;;;;;;5010807;28;20030;-68
2023/08/06 07:47:44;;;;;;;2.78;0.80;;;;;;;;;;5012961;28;20120;-69
2023/08/06 07:50:09;;;;;;;2.78;0.90;;;;;;;;;;5013376;28;20017;-68
2023/08/06 07:52:35;;;;;;;3.38;1.00;;;;;;;;;;5011836;28;20018;-70
2023/08/06 07:55:04;;;;;;;2.47;0.85;;;;;;;;;;5014572;28;20055;-68
2023/08/06 07:57:34;;;;;;;3.45;1.10;;;;;;;;;;5017455;28;20105;-69
2023/08/06 07:59:59;;;;;;;3.17;1.20;;;;;;;;;;5008944;28;20024;-67
2023/08/06 08:02:24;;;;;;;3.53;0.82;;;;;;;;;;5009133;28;20591;-68
2023/08/06 08:04:50;;;;;;;3.77;1.00;;;;;;;;;;5014235;28;20022;-69
2023/08/06 08:07:15;;;;;;;3.35;1.00;;;;;;;;;;5010664;28;20282;-72
2023/08/06 08:09:43;;;;;;;2.67;0.90;;;;;;;;;;5010628;28;20076;-69
2023/08/06 08:12:08;;;;;;;3.90;1.10;;;;;;;;;;5016566;28;20111;-68
2023/08/06 08:14:36;;;;;;;3.43;0.97;;;;;;;;;;5013975;28;20544;-68
2023/08/06 08:17:03;;;;;;;3.78;1.02;;;;;;;;;;5019416;28;20256;-66
2023/08/06 08:19:28;;;;;;;2.97;0.93;;;;;;;;;;5014241;28;20053;-67
2023/08/06 08:21:54;;;;;;;3.50;1.20;;;;;;;;;;5016218;28;20017;-67
2023/08/06 08:24:19;;;;;;;3.92;1.55;;;;;;;;;;5014469;28;20046;-68
2023/08/06 08:26:45;;;;;;;5.22;2.47;;;;;;;;;;5006777;28;20080;-68
2023/08/06 08:29:12;;;;;;;4.30;1.90;;;;;;;;;;4989882;28;21127;-68
2023/08/06 08:31:39;;;;;;;4.53;1.40;;;;;;;;;;5011891;28;20494;-68
2023/08/06 08:34:07;;;;;;;4.30;1.70;;;;;;;;;;4989599;28;20021;-67
2023/08/06 08:36:32;;;;;;;5.72;3.25;;;;;;;;;;4992788;28;20025;-68
2023/08/06 08:38:58;;;;;;;3.80;1.20;;;;;;;;;;4996956;28;20076;-67
2023/08/06 08:41:23;;;;;;;9.93;5.07;;;;;;;;;;5028472;28;20848;-67
2023/08/06 08:43:49;;;;;;;3.47;1.25;;;;;;;;;;5005621;28;20018;-68
2023/08/06 08:46:15;;;;;;;12.55;6.03;;;;;;;;;;4997693;28;20030;-68
2023/08/06 08:48:40;;;;;;;8.13;3.97;;;;;;;;;;5001168;28;20026;-69
2023/08/06 08:51:06;;;;;;;20.05;10.95;;;;;;;;;;4996664;28;20029;-68
2023/08/06 08:53:34;;;;;;;46.67;23.77;;;;;;;;;;5009753;28;20757;-68
2023/08/06 08:55:59;;;;;;;7.03;2.70;;;;;;;;;;5037765;28;20755;-69
2023/08/06 08:58:24;;;;;;;4.75;2.35;;;;;;;;;;5002497;28;20017;-68
2023/08/06 09:00:50;;;;;;;5.30;2.60;;;;;;;;;;5009431;28;20863;-68
2023/08/06 09:03:16;;;;;;;5.20;2.60;;;;;;;;;;5006861;28;20163;-67
2023/08/06 09:05:44;;;;;;;4.25;1.80;;;;;;;;;;5022425;28;20051;-68
2023/08/06 09:08:11;;;;;;;4.90;2.30;;;;;;;;;;5014234;28;20634;-69
2023/08/06 09:10:36;;;;;;;5.00;2.55;;;;;;;;;;5009850;28;20075;-67
2023/08/06 09:13:03;;;;;;;3.90;1.48;;;;;;;;;;5024671;28;20025;-68
2023/08/06 09:15:29;;;;;;;4.10;1.30;;;;;;;;;;5012094;28;20025;-68
2023/08/06 09:17:54;;;;;;;3.08;0.90;;;;;;;;;;5010831;28;20052;-67
2023/08/06 09:20:20;;;;;;;3.55;1.30;;;;;;;;;;5012129;28;20049;-67
2023/08/06 09:22:47;;;;;;;5.10;1.70;;;;;;;;;;5006504;28;20654;-66
2023/08/06 09:25:20;;;;;;;5.40;1.83;;;;;;;;;;5006379;28;20025;-66
2023/08/06 09:27:48;;;;;;;4.53;1.83;;;;;;;;;;5021465;28;20813;-64
2023/08/06 09:30:27;;;;;;;3.20;1.10;;;;;;;;;;5015126;28;20029;-64
2023/08/06 09:32:53;;;;;;;3.38;1.15;;;;;;;;;;5010548;28;20021;-65
2023/08/06 09:35:21;;;;;;;2.95;1.08;;;;;;;;;;5015040;28;20139;-63
2023/08/06 09:37:46;;;;;;;4.20;1.25;;;;;;;;;;5037008;28;20703;-65
2023/08/06 09:40:31;;;;;;;2.65;0.80;;;;;;;;;;5014885;28;20029;-65
2023/08/06 09:42:57;;;;;;;3.30;1.00;;;;;;;;;;5015237;28;20025;-65
2023/08/06 09:45:23;;;;;;;1.50;0.55;;;;;;;;;;5011324;28;20389;-66
2023/08/06 09:47:51;;;;;;;2.78;0.80;;;;;;;;;;5013640;28;20034;-65
2023/08/06 09:50:18;;;;;;;2.65;0.70;;;;;;;;;;5007635;28;20036;-64
2023/08/06 09:52:43;;;;;;;2.22;0.60;;;;;;;;;;5011632;28;20033;-65
2023/08/06 09:55:10;;;;;;;1.75;0.50;;;;;;;;;;5004247;28;20261;-65
2023/08/06 09:57:36;;;;;;;3.83;0.68;;;;;;;;;;5011617;28;20076;-65
2023/08/06 10:00:01;;;;;;;2.40;0.70;;;;;;;;;;5041425;28;20167;-65
2023/08/06 10:02:29;;;;;;;2.75;0.80;;;;;;;;;;5013575;28;20013;-62
2023/08/06 10:04:57;;;;;;;2.40;0.80;;;;;;;;;;5014784;28;20057;-64
2023/08/06 10:07:24;;;;;;;2.95;0.90;;;;;;;;;;5012253;28;20120;-64
2023/08/06 10:09:49;;;;;;;2.45;0.60;;;;;;;;;;5011422;28;20036;-69
2023/08/06 10:12:15;;;;;;;3.88;1.20;;;;;;;;;;5008949;28;20017;-64
2023/08/06 10:14:41;;;;;;;2.92;0.98;;;;;;;;;;5009922;28;20036;-63
2023/08/06 10:17:07;;;;;;;1.92;0.60;;;;;;;;;;5004232;28;20492;-65
2023/08/06 10:19:36;;;;;;;2.17;0.57;;;;;;;;;;5002006;28;20251;-66
2023/08/06 10:22:17;;;;;;;2.20;0.60;;;;;;;;;;5002359;28;20024;-66
2023/08/06 10:24:55;;;;;;;3.28;1.05;;;;;;;;;;5002680;28;20547;-65
2023/08/06 10:27:30;;;;;;;3.63;1.17;;;;;;;;;;5012029;28;20921;-64
2023/08/06 10:29:58;;;;;;;2.90;1.08;;;;;;;;;;5009425;28;20672;-64
2023/08/06 10:32:43;;;;;;;2.28;0.70;;;;;;;;;;5012768;28;20116;-66
2023/08/06 10:35:30;;;;;;;3.60;1.30;;;;;;;;;;5004351;28;20033;-66
2023/08/06 10:37:59;;;;;;;5.40;2.30;;;;;;;;;;5012208;28;20609;-63
2023/08/06 10:40:25;;;;;;;2.95;0.85;;;;;;;;;;5009298;28;20017;-65
2023/08/06 10:42:53;;;;;;;3.53;1.42;;;;;;;;;;5011102;28;20697;-64
2023/08/06 10:45:19;;;;;;;2.55;0.70;;;;;;;;;;5007596;28;20031;-64
2023/08/06 10:47:46;;;;;;;4.90;1.98;;;;;;;;;;5012308;28;20703;-65
2023/08/06 10:50:16;;;;;;;3.70;1.20;;;;;;;;;;5009132;28;20652;-66
2023/08/06 10:52:44;;;;;;;2.13;0.65;;;;;;;;;;5005241;28;20029;-65
2023/08/06 10:55:10;;;;;;;1.80;0.60;;;;;;;;;;5014199;28;20423;-66
2023/08/06 10:57:38;;;;;;;6.55;2.70;;;;;;;;;;5010699;28;20024;-65
2023/08/06 11:00:08;;;;;;;5.60;1.90;;;;;;;;;;5043576;28;20021;-64
2023/08/06 11:02:36;;;;;;;8.55;4.22;;;;;;;;;;5011331;28;20059;-65
2023/08/06 11:05:05;;;;;;;2.00;0.60;;;;;;;;;;5008890;28;20042;-66
2023/08/06 11:07:31;;;;;;;2.00;0.50;;;;;;;;;;5010702;28;20040;-66
2023/08/06 11:10:06;;;;;;;4.32;1.27;;;;;;;;;;5008323;28;20937;-66
2023/08/06 11:12:32;;;;;;;2.50;0.63;;;;;;;;;;5010039;28;20053;-66
2023/08/06 11:14:57;;;;;;;2.47;0.60;;;;;;;;;;5022494;28;20120;-64
2023/08/06 11:17:23;;;;;;;3.10;1.13;;;;;;;;;;5011136;28;20029;-64
2023/08/06 11:19:48;;;;;;;1.42;0.40;;;;;;;;;;5008527;28;20886;-67
2023/08/06 11:22:15;;;;;;;5.03;2.58;;;;;;;;;;5040379;28;20624;-65
2023/08/06 11:24:40;;;;;;;2.58;0.73;;;;;;;;;;5009846;28;20033;-64
2023/08/06 11:27:15;;;;;;;2.87;0.80;;;;;;;;;;4999360;28;20020;-65
2023/08/06 11:29:44;;;;;;;3.03;0.77;;;;;;;;;;5007537;28;20299;-64
2023/08/06 11:32:09;;;;;;;3.05;0.90;;;;;;;;;;4997100;28;20044;-66
2023/08/06 11:34:35;;;;;;;3.97;1.40;;;;;;;;;;5005702;28;20026;-65
2023/08/06 11:37:03;;;;;;;3.42;0.90;;;;;;;;;;4998747;28;20033;-64
2023/08/06 11:39:28;;;;;;;3.13;1.00;;;;;;;;;;5003500;28;20048;-67
2023/08/06 11:41:57;;;;;;;3.25;1.30;;;;;;;;;;5003721;28;20105;-64
2023/08/06 11:44:22;;;;;;;2.55;0.70;;;;;;;;;;5004800;28;20021;-66
2023/08/06 11:46:59;;;;;;;1.00;0.30;;;;;;;;;;5012435;28;20031;-64
2023/08/06 11:49:37;;;;;;;1.83;0.50;;;;;;;;;;5008435;28;20213;-64
2023/08/06 11:52:23;;;;;;;3.70;1.00;;;;;;;;;;5012804;28;20025;-64
2023/08/06 11:55:10;;;;;;;2.75;0.60;;;;;;;;;;5002016;28;20037;-66
2023/08/06 11:57:35;;;;;;;4.57;0.50;;;;;;;;;;5012374;28;20139;-66
2023/08/06 12:00:10;;;;;;;1.17;0.30;;;;;;;;;;5023181;28;20144;-65
2023/08/06 12:02:39;;;;;;;1.48;0.30;;;;;;;;;;5012683;28;20541;-65
2023/08/06 12:05:09;;;;;;;1.13;0.30;;;;;;;;;;5005400;28;20028;-64
2023/08/06 12:07:39;;;;;;;2.00;0.50;;;;;;;;;;5012462;28;20021;-66
2023/08/06 12:10:05;;;;;;;0.77;0.22;;;;;;;;;;5009636;28;20915;-64
2023/08/06 12:15:32;;;;;;;1.88;0.60;;;;;;;;;;5008305;28;20103;-63
2023/08/06 12:17:58;;;;;;;1.43;0.30;;;;;;;;;;5013091;28;20025;-65
2023/08/06 12:20:23;;;;;;;1.88;0.45;;;;;;;;;;5006602;28;20862;-65
2023/08/06 12:22:49;;;;;;;1.13;0.30;;;;;;;;;;5002922;28;20506;-64
2023/08/06 12:25:14;;;;;;;1.38;0.38;;;;;;;;;;5001704;28;20060;-63
2023/08/06 12:27:46;;;;;;;1.85;0.40;;;;;;;;;;5009638;28;20033;-64
2023/08/06 12:30:12;;;;;;;3.53;1.02;;;;;;;;;;5019836;28;20026;-65
2023/08/06 12:32:40;;;;;;;1.23;0.38;;;;;;;;;;5010912;28;20044;-65
2023/08/06 12:35:07;;;;;;;1.15;0.30;;;;;;;;;;5009201;28;20053;-65
2023/08/06 12:37:32;;;;;;;1.77;0.50;;;;;;;;;;5006547;28;20029;-67
2023/08/06 12:39:58;;;;;;;1.65;0.50;;;;;;;;;;5008769;28;20040;-66
2023/08/06 12:42:24;;;;;;;3.97;1.52;;;;;;;;;;5012630;28;20030;-65
2023/08/06 12:44:49;;;;;;;2.50;0.70;;;;;;;;;;5011175;28;20755;-66
2023/08/06 12:47:15;;;;;;;1.00;0.30;;;;;;;;;;5009593;28;20044;-65
2023/08/06 12:49:41;;;;;;;7.90;3.95;;;;;;;;;;5012998;28;20025;-64
2023/08/06 12:52:07;;;;;;;1.07;0.30;;;;;;;;;;5005336;28;20504;-65
2023/08/06 12:54:39;;;;;;;12.00;4.95;;;;;;;;;;5015428;28;20039;-66
2023/08/06 12:57:04;;;;;;;3.88;1.10;;;;;;;;;;5011494;28;20029;-64
2023/08/06 12:59:30;;;;;;;13.00;7.85;;;;;;;;;;5010955;28;20098;-65
2023/08/06 13:01:55;;;;;;;1.60;0.50;;;;;;;;;;5001081;28;20834;-65
2023/08/06 13:04:21;;;;;;;8.63;4.03;;;;;;;;;;5003019;28;20057;-65
2023/08/06 13:06:46;;;;;;;0.90;0.30;;;;;;;;;;5006244;28;20277;-64
2023/08/06 13:09:11;;;;;;;1.40;0.40;;;;;;;;;;5042247;28;20091;-66
2023/08/06 13:11:40;;;;;;;2.38;0.70;;;;;;;;;;5009322;28;20271;-66
2023/08/06 13:14:06;;;;;;;1.25;0.30;;;;;;;;;;5008716;28;20526;-66
2023/08/06 13:16:34;;;;;;;3.00;0.50;;;;;;;;;;5008292;28;20037;-67
2023/08/06 13:19:02;;;;;;;1.33;0.30;;;;;;;;;;5008284;28;20131;-64
2023/08/06 13:21:31;;;;;;;1.25;0.30;;;;;;;;;;5013060;28;20106;-66
2023/08/06 13:23:56;;;;;;;0.77;0.30;;;;;;;;;;5009120;28;20044;-64
2023/08/06 13:26:21;;;;;;;0.57;0.20;;;;;;;;;;5010473;28;20048;-66
2023/08/06 13:28:47;;;;;;;1.00;0.23;;;;;;;;;;5010432;28;20267;-65
2023/08/06 13:31:15;;;;;;;1.83;0.40;;;;;;;;;;5007939;28;20021;-66
2023/08/06 13:33:40;;;;;;;0.60;0.20;;;;;;;;;;5004923;28;20104;-65
2023/08/06 13:36:05;;;;;;;0.90;0.20;;;;;;;;;;5007595;28;20033;-66
2023/08/06 13:38:30;;;;;;;1.47;0.40;;;;;;;;;;5004923;28;20285;-66
2023/08/06 13:40:56;;;;;;;1.67;0.37;;;;;;;;;;5011621;28;20264;-65
2023/08/06 13:43:23;;;;;;;1.05;0.28;;;;;;;;;;5007910;28;20032;-65
2023/08/06 13:45:49;;;;;;;1.35;0.30;;;;;;;;;;5003464;28;20025;-64
2023/08/06 13:48:14;;;;;;;2.20;0.40;;;;;;;;;;5011192;28;20033;-66
2023/08/06 13:50:39;;;;;;;1.33;0.30;;;;;;;;;;5007307;28;20369;-65
2023/08/06 13:53:04;;;;;;;2.42;0.40;;;;;;;;;;5001264;28;20073;-67
2023/08/06 13:55:30;;;;;;;2.07;0.40;;;;;;;;;;5002991;28;20037;-67
2023/08/06 13:57:58;;;;;;;1.20;0.30;;;;;;;;;;5001798;28;20267;-67
2023/08/06 14:00:24;;;;;;;0.70;0.17;;;;;;;;;;5008284;28;20135;-65
2023/08/06 14:02:49;;;;;;;1.30;0.40;;;;;;;;;;5005914;28;20025;-65
2023/08/06 14:05:14;;;;;;;1.07;0.30;;;;;;;;;;5009902;28;20989;-66
2023/08/06 14:07:42;;;;;;;2.03;0.60;;;;;;;;;;5009743;28;20271;-66
2023/08/06 14:10:10;;;;;;;1.73;0.35;;;;;;;;;;5005595;28;20076;-66
2023/08/06 14:12:36;;;;;;;1.65;0.17;;;;;;;;;;4998570;28;20056;-66
2023/08/06 14:15:02;;;;;;;0.75;0.20;;;;;;;;;;5006562;28;20911;-66
2023/08/06 14:17:30;;;;;;;1.38;0.25;;;;;;;;;;5008325;28;20021;-66
2023/08/06 14:19:55;;;;;;;0.75;0.20;;;;;;;;;;5006178;28;20125;-66
2023/08/06 14:22:21;;;;;;;1.73;0.50;;;;;;;;;;5009320;28;20976;-66
2023/08/06 14:24:47;;;;;;;1.23;0.40;;;;;;;;;;5006647;28;20036;-64
2023/08/06 14:27:12;;;;;;;1.27;0.40;;;;;;;;;;5007863;28;20491;-66
2023/08/06 14:29:37;;;;;;;2.08;0.50;;;;;;;;;;5010031;28;20504;-66
2023/08/06 14:32:05;;;;;;;1.63;0.53;;;;;;;;;;5008989;28;20140;-65
2023/08/06 14:34:30;;;;;;;1.60;0.32;;;;;;;;;;5044810;28;20286;-65
2023/08/06 14:36:55;;;;;;;1.10;0.30;;;;;;;;;;5010214;28;20749;-65
2023/08/06 14:39:21;;;;;;;1.42;0.38;;;;;;;;;;5013244;28;20032;-64
2023/08/06 14:41:47;;;;;;;1.13;0.30;;;;;;;;;;5009316;28;20021;-65
2023/08/06 14:44:14;;;;;;;1.25;0.38;;;;;;;;;;5012448;28;20374;-65